KHVR

Havre City-County Airport

Havre, Montana, USA
METAR KHVR 170553Z AUTO 22009KT 10SM FEW037 OVC060 M03/M05 A2997 RMK AO2 SLP179 T10331050 11006 21044 58014
Observed Flight Rules
Dec-17 @ 05:53 UTC (28 minutes ago) Visual Flight Rules
Wind Visibility Clouds
220° at 9 knots 10 miles
  • Few at 3,700' AGL
  • Overcast at 6,000' AGL
Temperatures Readings
Current -3°C / 27°F
Dewpoint -5°C / 23°F
Humidity 86%
Altimeter 29.97" Hg
Pressure 1017.9 hPa
Elevation 787
METAR KHVR 170553Z AUTO 22009KT 10SM FEW037 OVC060 M03/M05 A2997 RMK AO2 SLP179 T10331050 11006 21044 58014
Observed Flight Rules
Dec-17 @ 05:53 UTC
(28 minutes ago)
VFR
Wind Visibility
220° at 9 knots 10 miles
Clouds
  • Few at 3,700' AGL
  • Overcast at 6,000' AGL
Temperature Dewpoint
-3°C / 27°F -5°C / 23°F
Humidity Altimeter Pressure
86% 29.97" Hg 1017.9 hPa